sensor_id;sensor_type;location;lat;lon;timestamp;P1;durP1;ratioP1;P2;durP2;ratioP2
60257;SDS011;46115;44.484;11.314;2023-05-07T00:03:30;3.10;;;1.75;;
60257;SDS011;46115;44.484;11.314;2023-05-07T00:07:33;2.88;;;1.80;;
60257;SDS011;46115;44.484;11.314;2023-05-07T00:11:35;2.80;;;1.80;;
60257;SDS011;46115;44.484;11.314;2023-05-07T00:15:39;2.63;;;1.80;;
60257;SDS011;46115;44.484;11.314;2023-05-07T00:19:41;3.15;;;1.75;;
60257;SDS011;46115;44.484;11.314;2023-05-07T00:23:43;4.07;;;1.60;;
60257;SDS011;46115;44.484;11.314;2023-05-07T00:27:46;3.40;;;2.00;;
60257;SDS011;46115;44.484;11.314;2023-05-07T00:31:50;3.53;;;1.50;;
60257;SDS011;46115;44.484;11.314;2023-05-07T00:35:54;2.33;;;1.70;;
60257;SDS011;46115;44.484;11.314;2023-05-07T00:39:57;2.80;;;1.95;;
60257;SDS011;46115;44.484;11.314;2023-05-07T00:43:59;2.42;;;1.83;;
60257;SDS011;46115;44.484;11.314;2023-05-07T00:48:03;11.75;;;2.60;;
60257;SDS011;46115;44.484;11.314;2023-05-07T00:52:07;2.03;;;1.73;;
60257;SDS011;46115;44.484;11.314;2023-05-07T00:56:11;3.33;;;2.10;;
60257;SDS011;46115;44.484;11.314;2023-05-07T01:00:14;3.10;;;2.17;;
60257;SDS011;46115;44.484;11.314;2023-05-07T01:04:17;2.83;;;1.80;;
60257;SDS011;46115;44.484;11.314;2023-05-07T01:08:20;3.28;;;1.80;;
60257;SDS011;46115;44.484;11.314;2023-05-07T01:12:25;3.00;;;1.90;;
60257;SDS011;46115;44.484;11.314;2023-05-07T01:16:29;3.63;;;1.90;;
60257;SDS011;46115;44.484;11.314;2023-05-07T01:20:33;3.35;;;1.98;;
60257;SDS011;46115;44.484;11.314;2023-05-07T01:24:37;4.80;;;1.98;;
60257;SDS011;46115;44.484;11.314;2023-05-07T01:28:42;4.05;;;2.10;;
60257;SDS011;46115;44.484;11.314;2023-05-07T01:32:47;4.28;;;2.28;;
60257;SDS011;46115;44.484;11.314;2023-05-07T01:36:53;2.40;;;1.75;;
60257;SDS011;46115;44.484;11.314;2023-05-07T01:41:00;2.88;;;2.20;;
60257;SDS011;46115;44.484;11.314;2023-05-07T01:45:03;6.90;;;2.05;;
60257;SDS011;46115;44.484;11.314;2023-05-07T01:49:06;2.88;;;1.98;;
60257;SDS011;46115;44.484;11.314;2023-05-07T01:53:09;3.53;;;2.00;;
60257;SDS011;46115;44.484;11.314;2023-05-07T01:57:12;2.00;;;1.70;;
60257;SDS011;46115;44.484;11.314;2023-05-07T02:01:15;3.70;;;2.00;;
60257;SDS011;46115;44.484;11.314;2023-05-07T02:05:18;3.35;;;2.10;;
60257;SDS011;46115;44.484;11.314;2023-05-07T02:09:25;5.10;;;2.00;;
60257;SDS011;46115;44.484;11.314;2023-05-07T02:13:31;2.85;;;2.00;;
60257;SDS011;46115;44.484;11.314;2023-05-07T02:17:35;2.70;;;1.98;;
60257;SDS011;46115;44.484;11.314;2023-05-07T02:21:38;2.50;;;1.98;;
60257;SDS011;46115;44.484;11.314;2023-05-07T02:25:41;3.05;;;1.90;;
60257;SDS011;46115;44.484;11.314;2023-05-07T02:29:44;3.03;;;2.10;;
60257;SDS011;46115;44.484;11.314;2023-05-07T02:33:47;2.20;;;1.73;;
60257;SDS011;46115;44.484;11.314;2023-05-07T02:37:50;3.92;;;2.22;;
60257;SDS011;46115;44.484;11.314;2023-05-07T02:41:52;4.50;;;2.05;;
60257;SDS011;46115;44.484;11.314;2023-05-07T02:46:03;4.18;;;1.90;;
60257;SDS011;46115;44.484;11.314;2023-05-07T02:54:09;4.05;;;2.05;;
60257;SDS011;46115;44.484;11.314;2023-05-07T02:58:12;3.00;;;2.00;;
60257;SDS011;46115;44.484;11.314;2023-05-07T03:02:17;2.85;;;1.90;;
60257;SDS011;46115;44.484;11.314;2023-05-07T03:06:20;2.08;;;1.85;;
60257;SDS011;46115;44.484;11.314;2023-05-07T03:10:22;4.70;;;2.03;;
60257;SDS011;46115;44.484;11.314;2023-05-07T03:14:24;3.28;;;1.95;;
60257;SDS011;46115;44.484;11.314;2023-05-07T03:18:28;4.72;;;2.03;;
60257;SDS011;46115;44.484;11.314;2023-05-07T03:22:31;3.97;;;1.90;;
60257;SDS011;46115;44.484;11.314;2023-05-07T03:26:33;5.05;;;2.63;;
60257;SDS011;46115;44.484;11.314;2023-05-07T03:30:36;4.32;;;1.90;;
60257;SDS011;46115;44.484;11.314;2023-05-07T03:34:39;4.22;;;2.00;;
60257;SDS011;46115;44.484;11.314;2023-05-07T03:38:46;5.28;;;2.00;;
60257;SDS011;46115;44.484;11.314;2023-05-07T03:42:52;3.15;;;2.00;;
60257;SDS011;46115;44.484;11.314;2023-05-07T03:46:58;2.58;;;1.92;;
60257;SDS011;46115;44.484;11.314;2023-05-07T03:51:02;6.93;;;2.00;;
60257;SDS011;46115;44.484;11.314;2023-05-07T03:55:08;3.65;;;2.00;;
60257;SDS011;46115;44.484;11.314;2023-05-07T03:59:13;5.15;;;2.30;;
60257;SDS011;46115;44.484;11.314;2023-05-07T04:03:18;3.78;;;1.92;;
60257;SDS011;46115;44.484;11.314;2023-05-07T04:07:22;3.33;;;2.13;;
60257;SDS011;46115;44.484;11.314;2023-05-07T04:11:26;3.40;;;1.98;;
60257;SDS011;46115;44.484;11.314;2023-05-07T04:15:30;5.22;;;2.10;;
60257;SDS011;46115;44.484;11.314;2023-05-07T04:19:32;4.85;;;2.20;;
60257;SDS011;46115;44.484;11.314;2023-05-07T04:23:37;3.25;;;1.98;;
60257;SDS011;46115;44.484;11.314;2023-05-07T04:27:44;4.65;;;2.20;;
60257;SDS011;46115;44.484;11.314;2023-05-07T04:31:48;4.03;;;2.13;;
60257;SDS011;46115;44.484;11.314;2023-05-07T04:35:50;5.63;;;2.08;;
60257;SDS011;46115;44.484;11.314;2023-05-07T04:39:54;3.97;;;2.00;;
60257;SDS011;46115;44.484;11.314;2023-05-07T04:43:58;2.63;;;2.00;;
60257;SDS011;46115;44.484;11.314;2023-05-07T04:48:02;2.22;;;1.85;;
60257;SDS011;46115;44.484;11.314;2023-05-07T04:52:06;2.47;;;1.92;;
60257;SDS011;46115;44.484;11.314;2023-05-07T04:56:10;3.08;;;2.20;;
60257;SDS011;46115;44.484;11.314;2023-05-07T05:00:16;3.75;;;2.20;;
60257;SDS011;46115;44.484;11.314;2023-05-07T05:04:21;6.07;;;2.33;;
60257;SDS011;46115;44.484;11.314;2023-05-07T05:08:24;2.60;;;2.20;;
60257;SDS011;46115;44.484;11.314;2023-05-07T05:12:28;4.00;;;2.30;;
60257;SDS011;46115;44.484;11.314;2023-05-07T05:16:33;3.00;;;2.35;;
60257;SDS011;46115;44.484;11.314;2023-05-07T05:20:35;3.50;;;2.42;;
60257;SDS011;46115;44.484;11.314;2023-05-07T05:24:38;4.15;;;2.53;;
60257;SDS011;46115;44.484;11.314;2023-05-07T05:28:42;5.03;;;3.00;;
60257;SDS011;46115;44.484;11.314;2023-05-07T05:32:45;6.65;;;3.88;;
60257;SDS011;46115;44.484;11.314;2023-05-07T05:36:48;2.47;;;2.28;;
60257;SDS011;46115;44.484;11.314;2023-05-07T05:40:51;2.85;;;2.42;;
60257;SDS011;46115;44.484;11.314;2023-05-07T05:44:54;4.68;;;2.58;;
60257;SDS011;46115;44.484;11.314;2023-05-07T05:48:58;3.47;;;2.63;;
60257;SDS011;46115;44.484;11.314;2023-05-07T05:53:01;4.03;;;3.47;;
60257;SDS011;46115;44.484;11.314;2023-05-07T05:57:03;6.38;;;3.03;;
60257;SDS011;46115;44.484;11.314;2023-05-07T06:01:08;4.68;;;3.88;;
60257;SDS011;46115;44.484;11.314;2023-05-07T06:05:12;5.97;;;4.38;;
60257;SDS011;46115;44.484;11.314;2023-05-07T06:09:15;8.55;;;7.45;;
60257;SDS011;46115;44.484;11.314;2023-05-07T06:13:19;5.35;;;4.85;;
60257;SDS011;46115;44.484;11.314;2023-05-07T06:17:23;4.57;;;3.50;;
60257;SDS011;46115;44.484;11.314;2023-05-07T06:21:25;10.50;;;7.30;;
60257;SDS011;46115;44.484;11.314;2023-05-07T06:25:28;6.28;;;5.43;;
60257;SDS011;46115;44.484;11.314;2023-05-07T06:29:30;10.05;;;7.07;;
60257;SDS011;46115;44.484;11.314;2023-05-07T06:33:36;7.57;;;5.60;;
60257;SDS011;46115;44.484;11.314;2023-05-07T06:37:39;9.88;;;6.85;;
60257;SDS011;46115;44.484;11.314;2023-05-07T06:41:47;7.15;;;6.40;;
60257;SDS011;46115;44.484;11.314;2023-05-07T06:45:58;9.70;;;7.40;;
60257;SDS011;46115;44.484;11.314;2023-05-07T06:50:03;10.93;;;8.05;;
60257;SDS011;46115;44.484;11.314;2023-05-07T06:54:07;9.48;;;8.10;;
60257;SDS011;46115;44.484;11.314;2023-05-07T06:58:12;8.07;;;7.13;;
60257;SDS011;46115;44.484;11.314;2023-05-07T07:02:15;7.20;;;6.50;;
60257;SDS011;46115;44.484;11.314;2023-05-07T07:06:19;7.63;;;6.90;;
60257;SDS011;46115;44.484;11.314;2023-05-07T07:10:21;8.98;;;7.30;;
60257;SDS011;46115;44.484;11.314;2023-05-07T07:14:26;8.32;;;7.50;;
60257;SDS011;46115;44.484;11.314;2023-05-07T07:18:29;8.75;;;7.47;;
60257;SDS011;46115;44.484;11.314;2023-05-07T07:22:34;10.13;;;8.70;;
60257;SDS011;46115;44.484;11.314;2023-05-07T07:26:37;8.27;;;7.15;;
60257;SDS011;46115;44.484;11.314;2023-05-07T07:30:41;13.18;;;7.13;;
60257;SDS011;46115;44.484;11.314;2023-05-07T07:34:44;7.05;;;5.90;;
60257;SDS011;46115;44.484;11.314;2023-05-07T07:38:49;10.82;;;6.85;;
60257;SDS011;46115;44.484;11.314;2023-05-07T07:42:52;8.68;;;7.13;;
60257;SDS011;46115;44.484;11.314;2023-05-07T07:46:55;8.40;;;7.10;;
60257;SDS011;46115;44.484;11.314;2023-05-07T07:50:59;7.53;;;6.22;;
60257;SDS011;46115;44.484;11.314;2023-05-07T07:55:04;8.57;;;7.20;;
60257;SDS011;46115;44.484;11.314;2023-05-07T07:59:08;8.32;;;7.55;;
60257;SDS011;46115;44.484;11.314;2023-05-07T08:03:14;9.43;;;6.32;;
60257;SDS011;46115;44.484;11.314;2023-05-07T08:07:21;9.40;;;6.30;;
60257;SDS011;46115;44.484;11.314;2023-05-07T08:11:25;13.30;;;6.18;;
60257;SDS011;46115;44.484;11.314;2023-05-07T08:15:29;7.65;;;5.28;;
60257;SDS011;46115;44.484;11.314;2023-05-07T08:19:32;6.70;;;5.30;;
60257;SDS011;46115;44.484;11.314;2023-05-07T08:23:34;6.03;;;4.65;;
60257;SDS011;46115;44.484;11.314;2023-05-07T08:27:39;8.13;;;5.30;;
60257;SDS011;46115;44.484;11.314;2023-05-07T08:31:41;5.90;;;4.55;;
60257;SDS011;46115;44.484;11.314;2023-05-07T08:35:44;6.38;;;4.40;;
60257;SDS011;46115;44.484;11.314;2023-05-07T08:39:48;6.88;;;4.60;;
60257;SDS011;46115;44.484;11.314;2023-05-07T08:43:57;6.50;;;4.50;;
60257;SDS011;46115;44.484;11.314;2023-05-07T08:48:02;5.47;;;4.80;;
60257;SDS011;46115;44.484;11.314;2023-05-07T08:52:11;5.00;;;4.50;;
60257;SDS011;46115;44.484;11.314;2023-05-07T08:56:14;5.35;;;4.28;;
60257;SDS011;46115;44.484;11.314;2023-05-07T09:00:19;6.25;;;4.30;;
60257;SDS011;46115;44.484;11.314;2023-05-07T09:04:24;5.47;;;4.60;;
60257;SDS011;46115;44.484;11.314;2023-05-07T09:08:27;5.32;;;4.15;;
60257;SDS011;46115;44.484;11.314;2023-05-07T09:12:33;5.78;;;4.20;;
60257;SDS011;46115;44.484;11.314;2023-05-07T09:16:39;6.72;;;4.30;;
60257;SDS011;46115;44.484;11.314;2023-05-07T09:20:42;5.45;;;4.38;;
60257;SDS011;46115;44.484;11.314;2023-05-07T09:24:47;5.70;;;4.95;;
60257;SDS011;46115;44.484;11.314;2023-05-07T09:28:50;6.70;;;6.10;;
60257;SDS011;46115;44.484;11.314;2023-05-07T09:32:55;7.75;;;6.07;;
60257;SDS011;46115;44.484;11.314;2023-05-07T09:36:58;10.60;;;6.10;;
60257;SDS011;46115;44.484;11.314;2023-05-07T09:41:02;6.57;;;5.97;;
60257;SDS011;46115;44.484;11.314;2023-05-07T09:45:11;6.65;;;5.50;;
60257;SDS011;46115;44.484;11.314;2023-05-07T09:49:19;8.40;;;5.47;;
60257;SDS011;46115;44.484;11.314;2023-05-07T09:53:25;6.70;;;6.07;;
60257;SDS011;46115;44.484;11.314;2023-05-07T09:57:29;6.80;;;6.10;;
60257;SDS011;46115;44.484;11.314;2023-05-07T10:01:36;6.25;;;5.20;;
60257;SDS011;46115;44.484;11.314;2023-05-07T10:05:41;6.78;;;6.00;;
60257;SDS011;46115;44.484;11.314;2023-05-07T10:09:45;7.38;;;6.25;;
60257;SDS011;46115;44.484;11.314;2023-05-07T10:13:57;7.57;;;5.65;;
60257;SDS011;46115;44.484;11.314;2023-05-07T10:18:00;6.75;;;5.63;;
60257;SDS011;46115;44.484;11.314;2023-05-07T10:22:06;7.35;;;6.65;;
60257;SDS011;46115;44.484;11.314;2023-05-07T10:26:16;9.48;;;6.43;;
60257;SDS011;46115;44.484;11.314;2023-05-07T10:30:23;6.88;;;5.55;;
60257;SDS011;46115;44.484;11.314;2023-05-07T10:34:36;6.50;;;5.57;;
60257;SDS011;46115;44.484;11.314;2023-05-07T10:38:43;6.80;;;4.93;;
60257;SDS011;46115;44.484;11.314;2023-05-07T10:42:55;5.45;;;4.30;;
60257;SDS011;46115;44.484;11.314;2023-05-07T10:47:04;7.38;;;4.78;;
60257;SDS011;46115;44.484;11.314;2023-05-07T10:51:19;7.65;;;5.35;;
60257;SDS011;46115;44.484;11.314;2023-05-07T10:55:27;7.03;;;6.28;;
60257;SDS011;46115;44.484;11.314;2023-05-07T10:59:50;8.07;;;5.50;;
60257;SDS011;46115;44.484;11.314;2023-05-07T11:04:12;6.82;;;5.03;;
60257;SDS011;46115;44.484;11.314;2023-05-07T11:08:20;5.95;;;4.70;;
60257;SDS011;46115;44.484;11.314;2023-05-07T11:12:52;11.40;;;6.65;;
60257;SDS011;46115;44.484;11.314;2023-05-07T11:17:12;5.60;;;5.00;;
60257;SDS011;46115;44.484;11.314;2023-05-07T11:21:34;7.72;;;5.70;;
60257;SDS011;46115;44.484;11.314;2023-05-07T11:25:45;5.90;;;4.28;;
60257;SDS011;46115;44.484;11.314;2023-05-07T11:29:56;4.07;;;3.67;;
60257;SDS011;46115;44.484;11.314;2023-05-07T11:33:59;7.32;;;3.75;;
60257;SDS011;46115;44.484;11.314;2023-05-07T11:38:02;5.57;;;3.67;;
60257;SDS011;46115;44.484;11.314;2023-05-07T11:42:14;6.10;;;4.00;;
60257;SDS011;46115;44.484;11.314;2023-05-07T11:46:28;6.18;;;3.90;;
60257;SDS011;46115;44.484;11.314;2023-05-07T11:50:31;6.07;;;4.82;;
60257;SDS011;46115;44.484;11.314;2023-05-07T11:54:36;4.53;;;3.92;;
60257;SDS011;46115;44.484;11.314;2023-05-07T11:58:39;5.25;;;4.00;;
60257;SDS011;46115;44.484;11.314;2023-05-07T12:02:43;5.00;;;4.10;;
60257;SDS011;46115;44.484;11.314;2023-05-07T12:06:47;6.20;;;4.13;;
60257;SDS011;46115;44.484;11.314;2023-05-07T12:10:51;4.45;;;3.70;;
60257;SDS011;46115;44.484;11.314;2023-05-07T12:14:54;4.70;;;4.30;;
60257;SDS011;46115;44.484;11.314;2023-05-07T12:18:58;6.05;;;3.75;;
60257;SDS011;46115;44.484;11.314;2023-05-07T12:23:01;4.93;;;4.20;;
60257;SDS011;46115;44.484;11.314;2023-05-07T12:27:04;8.35;;;3.97;;
60257;SDS011;46115;44.484;11.314;2023-05-07T12:31:06;4.63;;;4.00;;
60257;SDS011;46115;44.484;11.314;2023-05-07T12:35:10;6.18;;;4.22;;
60257;SDS011;46115;44.484;11.314;2023-05-07T12:39:13;4.40;;;4.00;;
60257;SDS011;46115;44.484;11.314;2023-05-07T12:43:16;4.70;;;4.25;;
60257;SDS011;46115;44.484;11.314;2023-05-07T12:47:19;7.75;;;4.70;;
60257;SDS011;46115;44.484;11.314;2023-05-07T12:51:24;5.22;;;4.38;;
60257;SDS011;46115;44.484;11.314;2023-05-07T12:55:26;5.10;;;4.60;;
60257;SDS011;46115;44.484;11.314;2023-05-07T12:59:31;5.57;;;4.20;;
60257;SDS011;46115;44.484;11.314;2023-05-07T13:03:35;4.97;;;4.43;;
60257;SDS011;46115;44.484;11.314;2023-05-07T13:07:40;7.63;;;5.40;;
60257;SDS011;46115;44.484;11.314;2023-05-07T13:11:42;5.50;;;5.00;;
60257;SDS011;46115;44.484;11.314;2023-05-07T13:15:45;5.95;;;4.95;;
60257;SDS011;46115;44.484;11.314;2023-05-07T13:19:47;6.10;;;5.20;;
60257;SDS011;46115;44.484;11.314;2023-05-07T13:23:52;5.72;;;5.22;;
60257;SDS011;46115;44.484;11.314;2023-05-07T13:27:54;7.78;;;5.75;;
60257;SDS011;46115;44.484;11.314;2023-05-07T13:31:57;5.85;;;5.10;;
60257;SDS011;46115;44.484;11.314;2023-05-07T13:35:59;5.80;;;5.20;;
60257;SDS011;46115;44.484;11.314;2023-05-07T13:40:05;6.78;;;5.47;;
60257;SDS011;46115;44.484;11.314;2023-05-07T13:44:08;5.45;;;4.72;;
60257;SDS011;46115;44.484;11.314;2023-05-07T13:48:11;7.85;;;5.10;;
60257;SDS011;46115;44.484;11.314;2023-05-07T13:52:13;6.32;;;5.05;;
60257;SDS011;46115;44.484;11.314;2023-05-07T13:56:17;7.38;;;5.95;;
60257;SDS011;46115;44.484;11.314;2023-05-07T14:00:21;8.55;;;6.22;;
60257;SDS011;46115;44.484;11.314;2023-05-07T14:04:23;5.28;;;4.57;;
60257;SDS011;46115;44.484;11.314;2023-05-07T14:08:26;6.47;;;5.00;;
60257;SDS011;46115;44.484;11.314;2023-05-07T14:12:30;7.45;;;5.00;;
60257;SDS011;46115;44.484;11.314;2023-05-07T14:16:33;8.23;;;5.28;;
60257;SDS011;46115;44.484;11.314;2023-05-07T14:20:36;6.53;;;4.78;;
60257;SDS011;46115;44.484;11.314;2023-05-07T14:24:38;8.00;;;5.20;;
60257;SDS011;46115;44.484;11.314;2023-05-07T14:28:42;7.63;;;6.00;;
60257;SDS011;46115;44.484;11.314;2023-05-07T14:32:46;6.38;;;5.78;;
60257;SDS011;46115;44.484;11.314;2023-05-07T14:36:49;6.40;;;5.60;;
60257;SDS011;46115;44.484;11.314;2023-05-07T14:40:52;9.00;;;5.70;;
60257;SDS011;46115;44.484;11.314;2023-05-07T14:44:58;9.05;;;5.13;;
60257;SDS011;46115;44.484;11.314;2023-05-07T14:49:01;6.68;;;4.63;;
60257;SDS011;46115;44.484;11.314;2023-05-07T14:53:04;6.63;;;5.10;;
60257;SDS011;46115;44.484;11.314;2023-05-07T14:57:09;7.13;;;5.40;;
60257;SDS011;46115;44.484;11.314;2023-05-07T15:01:15;6.57;;;5.55;;
60257;SDS011;46115;44.484;11.314;2023-05-07T15:05:18;6.30;;;4.90;;
60257;SDS011;46115;44.484;11.314;2023-05-07T15:09:21;8.00;;;4.53;;
60257;SDS011;46115;44.484;11.314;2023-05-07T15:13:23;7.57;;;4.70;;
60257;SDS011;46115;44.484;11.314;2023-05-07T15:17:27;6.53;;;5.18;;
60257;SDS011;46115;44.484;11.314;2023-05-07T15:21:29;6.28;;;5.18;;
60257;SDS011;46115;44.484;11.314;2023-05-07T15:25:35;7.70;;;5.78;;
60257;SDS011;46115;44.484;11.314;2023-05-07T15:29:37;7.90;;;5.85;;
60257;SDS011;46115;44.484;11.314;2023-05-07T15:33:41;6.55;;;5.85;;
60257;SDS011;46115;44.484;11.314;2023-05-07T15:37:44;9.57;;;6.03;;
60257;SDS011;46115;44.484;11.314;2023-05-07T15:41:46;6.90;;;6.07;;
60257;SDS011;46115;44.484;11.314;2023-05-07T15:45:48;6.30;;;5.80;;
60257;SDS011;46115;44.484;11.314;2023-05-07T15:49:52;9.13;;;7.07;;
60257;SDS011;46115;44.484;11.314;2023-05-07T15:53:55;10.90;;;7.05;;
60257;SDS011;46115;44.484;11.314;2023-05-07T15:57:57;14.30;;;7.50;;
60257;SDS011;46115;44.484;11.314;2023-05-07T16:02:00;7.32;;;6.63;;
60257;SDS011;46115;44.484;11.314;2023-05-07T16:06:05;9.43;;;7.00;;
60257;SDS011;46115;44.484;11.314;2023-05-07T16:10:08;10.32;;;6.43;;
60257;SDS011;46115;44.484;11.314;2023-05-07T16:14:11;6.82;;;5.97;;
60257;SDS011;46115;44.484;11.314;2023-05-07T16:18:15;11.20;;;9.65;;
60257;SDS011;46115;44.484;11.314;2023-05-07T16:22:19;10.82;;;8.43;;
60257;SDS011;46115;44.484;11.314;2023-05-07T16:26:21;13.02;;;8.70;;
60257;SDS011;46115;44.484;11.314;2023-05-07T16:30:24;10.90;;;9.82;;
60257;SDS011;46115;44.484;11.314;2023-05-07T16:34:30;9.52;;;8.63;;
60257;SDS011;46115;44.484;11.314;2023-05-07T16:38:35;10.80;;;9.38;;
60257;SDS011;46115;44.484;11.314;2023-05-07T16:42:38;10.73;;;9.73;;
60257;SDS011;46115;44.484;11.314;2023-05-07T16:46:41;12.23;;;9.05;;
60257;SDS011;46115;44.484;11.314;2023-05-07T16:50:43;11.57;;;9.43;;
60257;SDS011;46115;44.484;11.314;2023-05-07T16:54:47;9.07;;;8.18;;
60257;SDS011;46115;44.484;11.314;2023-05-07T16:58:51;9.25;;;8.35;;
60257;SDS011;46115;44.484;11.314;2023-05-07T17:02:53;11.90;;;8.82;;
60257;SDS011;46115;44.484;11.314;2023-05-07T17:06:56;9.02;;;7.38;;
60257;SDS011;46115;44.484;11.314;2023-05-07T17:11:00;10.40;;;7.90;;
60257;SDS011;46115;44.484;11.314;2023-05-07T17:15:03;9.00;;;6.93;;
60257;SDS011;46115;44.484;11.314;2023-05-07T17:19:05;12.30;;;7.18;;
60257;SDS011;46115;44.484;11.314;2023-05-07T17:23:08;8.90;;;7.68;;
60257;SDS011;46115;44.484;11.314;2023-05-07T17:27:12;8.00;;;6.75;;
60257;SDS011;46115;44.484;11.314;2023-05-07T17:31:14;9.13;;;7.20;;
60257;SDS011;46115;44.484;11.314;2023-05-07T17:35:16;10.70;;;7.30;;
60257;SDS011;46115;44.484;11.314;2023-05-07T17:39:19;8.50;;;7.60;;
60257;SDS011;46115;44.484;11.314;2023-05-07T17:43:23;9.95;;;7.70;;
60257;SDS011;46115;44.484;11.314;2023-05-07T17:47:25;9.13;;;7.40;;
60257;SDS011;46115;44.484;11.314;2023-05-07T17:51:27;8.88;;;7.35;;
60257;SDS011;46115;44.484;11.314;2023-05-07T17:55:30;10.88;;;7.63;;
60257;SDS011;46115;44.484;11.314;2023-05-07T17:59:35;8.70;;;7.45;;
60257;SDS011;46115;44.484;11.314;2023-05-07T18:03:37;8.02;;;7.00;;
60257;SDS011;46115;44.484;11.314;2023-05-07T18:07:40;8.60;;;7.63;;
60257;SDS011;46115;44.484;11.314;2023-05-07T18:11:42;7.82;;;7.03;;
60257;SDS011;46115;44.484;11.314;2023-05-07T18:15:46;8.10;;;6.97;;
60257;SDS011;46115;44.484;11.314;2023-05-07T18:19:49;8.13;;;7.32;;
60257;SDS011;46115;44.484;11.314;2023-05-07T18:23:51;10.30;;;7.28;;
60257;SDS011;46115;44.484;11.314;2023-05-07T18:27:54;8.18;;;7.40;;
60257;SDS011;46115;44.484;11.314;2023-05-07T18:31:57;8.32;;;7.20;;
60257;SDS011;46115;44.484;11.314;2023-05-07T18:36:00;10.40;;;6.93;;
60257;SDS011;46115;44.484;11.314;2023-05-07T18:40:03;8.43;;;6.88;;
60257;SDS011;46115;44.484;11.314;2023-05-07T18:44:06;7.40;;;6.70;;
60257;SDS011;46115;44.484;11.314;2023-05-07T18:48:10;8.25;;;7.45;;
60257;SDS011;46115;44.484;11.314;2023-05-07T18:52:12;8.82;;;7.40;;
60257;SDS011;46115;44.484;11.314;2023-05-07T18:56:16;10.13;;;7.57;;
60257;SDS011;46115;44.484;11.314;2023-05-07T19:00:19;8.23;;;6.70;;
60257;SDS011;46115;44.484;11.314;2023-05-07T19:04:22;8.55;;;6.65;;
60257;SDS011;46115;44.484;11.314;2023-05-07T19:08:25;11.63;;;7.20;;
60257;SDS011;46115;44.484;11.314;2023-05-07T19:12:27;7.25;;;6.55;;
60257;SDS011;46115;44.484;11.314;2023-05-07T22:06:09;3.72;;;1.95;;
60257;SDS011;46115;44.484;11.314;2023-05-07T22:10:11;4.80;;;1.80;;
60257;SDS011;46115;44.484;11.314;2023-05-07T22:14:14;4.97;;;1.95;;
60257;SDS011;46115;44.484;11.314;2023-05-07T22:18:16;3.10;;;1.92;;
60257;SDS011;46115;44.484;11.314;2023-05-07T22:22:20;4.53;;;1.80;;
60257;SDS011;46115;44.484;11.314;2023-05-07T22:26:22;4.40;;;2.08;;
60257;SDS011;46115;44.484;11.314;2023-05-07T22:30:25;4.43;;;2.33;;
60257;SDS011;46115;44.484;11.314;2023-05-07T22:34:28;8.52;;;2.35;;
60257;SDS011;46115;44.484;11.314;2023-05-07T22:38:32;3.83;;;2.22;;
60257;SDS011;46115;44.484;11.314;2023-05-07T22:42:34;4.50;;;2.00;;
60257;SDS011;46115;44.484;11.314;2023-05-07T22:46:36;4.32;;;2.13;;
60257;SDS011;46115;44.484;11.314;2023-05-07T22:50:39;4.20;;;2.00;;
60257;SDS011;46115;44.484;11.314;2023-05-07T22:54:43;3.05;;;1.85;;
60257;SDS011;46115;44.484;11.314;2023-05-07T22:58:45;3.75;;;1.95;;
60257;SDS011;46115;44.484;11.314;2023-05-07T23:02:49;6.00;;;2.00;;
60257;SDS011;46115;44.484;11.314;2023-05-07T23:06:51;2.80;;;2.15;;
60257;SDS011;46115;44.484;11.314;2023-05-07T23:10:55;5.30;;;2.15;;
60257;SDS011;46115;44.484;11.314;2023-05-07T23:14:58;3.50;;;2.08;;
60257;SDS011;46115;44.484;11.314;2023-05-07T23:19:00;3.55;;;1.90;;
60257;SDS011;46115;44.484;11.314;2023-05-07T23:23:03;4.25;;;2.30;;
60257;SDS011;46115;44.484;11.314;2023-05-07T23:27:07;4.35;;;1.90;;
60257;SDS011;46115;44.484;11.314;2023-05-07T23:31:09;3.60;;;2.05;;
60257;SDS011;46115;44.484;11.314;2023-05-07T23:35:12;2.72;;;1.92;;
60257;SDS011;46115;44.484;11.314;2023-05-07T23:39:15;3.50;;;1.77;;
60257;SDS011;46115;44.484;11.314;2023-05-07T23:43:18;3.42;;;2.00;;
60257;SDS011;46115;44.484;11.314;2023-05-07T23:47:21;3.85;;;1.98;;
60257;SDS011;46115;44.484;11.314;2023-05-07T23:51:24;4.60;;;1.80;;
60257;SDS011;46115;44.484;11.314;2023-05-07T23:55:26;2.92;;;1.98;;
60257;SDS011;46115;44.484;11.314;2023-05-07T23:59:30;3.65;;;2.00;;
